Terminal Aerodrome Forecast
Issued by NWS Cleveland, OH

Home | Current Version | Previous Version | Graphics & Text | Print | Product List | Glossary On
Versions: 1 2 3 4 5 6 7 8 9 10 11 12 13 14 15 16 17 18 19 20 21 22 23 24 25 26 27 28 29
000
FTUS41 KCLE 171100
TAFCLE
TAF
KCLE 171120Z 1712/1818 18002KT P6SM SCT045
      TEMPO 1712/1713 5SM BR
     FM171600 26007KT P6SM SCT250
     FM172000 32007KT P6SM SCT250
     FM180100 24003KT P6SM SKC
     FM181300 02007KT P6SM SCT250=

USA.gov is the U.S. government's official web portal to all federal, state and local government web resources and services.